Time;durP1;ratioP1;P1;durP2;ratioP2;P2;SDS_P1;SDS_P2;PMS_P1;PMS_P2;Temp;Humidity;BMP_temperature;BMP_pressure;BME280_temperature;BME280_humidity;BME280_pressure;Samples;Min_cycle;Max_cycle;Signal;HPM_P1;HPM_P2
2022/01/15 00:01:34;;;;;;;15.70;3.33;;;;;;;;;;5090572;28;20046;-63
2022/01/15 00:04:00;;;;;;;12.85;2.45;;;;;;;;;;5077838;28;20050;-63
2022/01/15 00:06:26;;;;;;;16.77;2.72;;;;;;;;;;5091911;28;20035;-62
2022/01/15 00:08:52;;;;;;;18.88;2.33;;;;;;;;;;5088533;28;20397;-61
2022/01/15 00:11:18;;;;;;;17.25;1.85;;;;;;;;;;5092903;28;20039;-61
2022/01/15 00:13:52;;;;;;;44.78;2.92;;;;;;;;;;5090097;28;20054;-62
2022/01/15 00:16:56;;;;;;;35.92;1.95;;;;;;;;;;5119392;27;20036;-63
2022/01/15 00:19:13;;;;;;;28.70;2.05;;;;;;;;;;5086501;28;20036;-62
2022/01/15 00:21:39;;;;;;;35.40;2.00;;;;;;;;;;5096503;28;20500;-63
2022/01/15 00:24:06;;;;;;;63.17;3.55;;;;;;;;;;5094676;28;20044;-63
2022/01/15 00:26:33;;;;;;;56.85;2.65;;;;;;;;;;5094997;28;20115;-64
2022/01/15 00:28:59;;;;;;;63.40;3.20;;;;;;;;;;5097531;28;20036;-63
2022/01/15 00:31:26;;;;;;;36.75;2.20;;;;;;;;;;5091248;28;20430;-62
2022/01/15 00:33:52;;;;;;;45.60;2.38;;;;;;;;;;5087002;28;20123;-62
2022/01/15 00:36:18;;;;;;;76.95;3.08;;;;;;;;;;5089751;28;20493;-63
2022/01/15 00:38:44;;;;;;;39.75;2.13;;;;;;;;;;5075208;28;20184;-63
2022/01/15 00:41:11;;;;;;;70.22;2.40;;;;;;;;;;5091193;28;20036;-64
2022/01/15 00:43:37;;;;;;;32.88;2.63;;;;;;;;;;5071779;28;20442;-63
2022/01/15 00:46:03;;;;;;;29.75;2.17;;;;;;;;;;5090643;28;20042;-63
2022/01/15 00:48:29;;;;;;;22.23;2.08;;;;;;;;;;5088483;28;20259;-63
2022/01/15 00:50:55;;;;;;;23.27;2.00;;;;;;;;;;5093210;28;20063;-63
2022/01/15 00:53:21;;;;;;;52.45;2.25;;;;;;;;;;5072653;28;20047;-63
2022/01/15 00:55:47;;;;;;;59.40;3.25;;;;;;;;;;5076204;28;20163;-63
2022/01/15 00:58:14;;;;;;;48.45;3.28;;;;;;;;;;5086317;28;20039;-64
2022/01/15 01:00:40;;;;;;;26.05;1.85;;;;;;;;;;5088946;28;20494;-64
2022/01/15 01:03:06;;;;;;;33.17;2.05;;;;;;;;;;5087258;28;20139;-64
2022/01/15 01:05:32;;;;;;;25.38;2.10;;;;;;;;;;5090977;28;20047;-63
2022/01/15 01:07:59;;;;;;;26.30;2.92;;;;;;;;;;5075892;28;20159;-63
2022/01/15 01:10:49;;;;;;;25.38;2.65;;;;;;;;;;5069574;28;20466;-63
2022/01/15 01:13:39;;;;;;;27.38;2.75;;;;;;;;;;5085657;28;20056;-64
2022/01/15 01:24:13;;;;;;;26.00;2.95;;;;;;;;;;5089683;28;20046;-62
2022/01/15 01:26:55;;;;;;;49.60;3.30;;;;;;;;;;5085175;28;20032;-62
2022/01/15 01:32:01;;;;;;;32.70;2.30;;;;;;;;;;5086315;28;20047;-62
2022/01/15 01:34:29;;;;;;;16.92;1.98;;;;;;;;;;5086275;28;20040;-63
2022/01/15 01:39:25;;;;;;;45.75;3.55;;;;;;;;;;5088872;28;20096;-62
2022/01/15 01:42:09;;;;;;;62.78;3.55;;;;;;;;;;5070468;28;20047;-63
2022/01/15 01:44:40;;;;;;;53.13;3.20;;;;;;;;;;5087602;28;20176;-62
2022/01/15 01:47:16;;;;;;;25.42;2.60;;;;;;;;;;5086252;28;20131;-62
2022/01/15 01:49:42;;;;;;;20.98;2.95;;;;;;;;;;5066541;28;20130;-62
2022/01/15 01:52:08;;;;;;;12.68;2.15;;;;;;;;;;5091246;28;21020;-61
2022/01/15 01:54:35;;;;;;;11.20;2.10;;;;;;;;;;5069702;28;20088;-61
2022/01/15 01:57:01;;;;;;;15.52;2.75;;;;;;;;;;5093082;28;20386;-61
2022/01/15 01:59:27;;;;;;;15.68;3.17;;;;;;;;;;5091116;28;20126;-63
2022/01/15 02:01:54;;;;;;;11.90;2.38;;;;;;;;;;5093090;28;20135;-61
2022/01/15 02:04:21;;;;;;;6.97;1.30;;;;;;;;;;5091360;28;20378;-62
2022/01/15 02:06:47;;;;;;;11.50;2.30;;;;;;;;;;5086599;28;20076;-61
2022/01/15 02:09:20;;;;;;;15.77;1.83;;;;;;;;;;5089938;28;20362;-61
2022/01/15 02:11:46;;;;;;;25.77;2.03;;;;;;;;;;5091909;28;20056;-61
2022/01/15 02:14:24;;;;;;;64.85;2.85;;;;;;;;;;5090587;28;20035;-62
2022/01/15 02:16:50;;;;;;;151.52;5.28;;;;;;;;;;5091348;28;20144;-62
2022/01/15 02:19:16;;;;;;;187.65;6.80;;;;;;;;;;5091063;28;20084;-62
2022/01/15 02:24:17;;;;;;;86.95;3.85;;;;;;;;;;5091751;28;20082;-62
2022/01/15 02:26:43;;;;;;;165.48;6.38;;;;;;;;;;5073477;28;20035;-62
2022/01/15 02:29:10;;;;;;;111.72;5.28;;;;;;;;;;5086516;28;20147;-62
2022/01/15 02:31:39;;;;;;;57.97;4.40;;;;;;;;;;5088611;28;20040;-63
2022/01/15 02:34:06;;;;;;;45.85;4.70;;;;;;;;;;5088916;28;20040;-64
2022/01/15 02:36:33;;;;;;;18.90;3.70;;;;;;;;;;5086738;28;20051;-63
2022/01/15 02:38:59;;;;;;;17.83;3.55;;;;;;;;;;5089632;28;20118;-63
2022/01/15 02:41:26;;;;;;;18.38;3.50;;;;;;;;;;5096832;28;20040;-64
2022/01/15 02:43:55;;;;;;;15.40;3.15;;;;;;;;;;5091613;28;20039;-62
2022/01/15 02:48:55;;;;;;;18.25;3.55;;;;;;;;;;5090798;28;20085;-62
2022/01/15 02:51:23;;;;;;;17.95;4.28;;;;;;;;;;5093971;28;20082;-62
2022/01/15 02:53:54;;;;;;;12.20;4.03;;;;;;;;;;5070593;28;20047;-63
2022/01/15 02:56:24;;;;;;;15.10;4.13;;;;;;;;;;5089287;28;20606;-63
2022/01/15 02:58:51;;;;;;;18.40;4.38;;;;;;;;;;5091350;28;20101;-63
2022/01/15 03:01:17;;;;;;;15.00;4.00;;;;;;;;;;5088464;28;20036;-63
2022/01/15 03:03:44;;;;;;;10.13;3.58;;;;;;;;;;5090718;28;20165;-63
2022/01/15 03:06:11;;;;;;;13.18;3.50;;;;;;;;;;5091398;28;20038;-63
2022/01/15 03:08:38;;;;;;;15.65;4.28;;;;;;;;;;5091563;28;20039;-63
2022/01/15 03:11:04;;;;;;;11.90;3.50;;;;;;;;;;5091551;28;20074;-63
2022/01/15 03:13:30;;;;;;;12.63;3.67;;;;;;;;;;5092066;28;20116;-63
2022/01/15 03:15:56;;;;;;;10.73;3.65;;;;;;;;;;5121108;27;20039;-63
2022/01/15 03:18:22;;;;;;;11.80;3.70;;;;;;;;;;5094028;28;20062;-63
2022/01/15 03:20:49;;;;;;;9.50;3.42;;;;;;;;;;5096516;28;20106;-62
2022/01/15 03:23:15;;;;;;;7.05;2.97;;;;;;;;;;5089921;28;20044;-62
2022/01/15 03:25:41;;;;;;;11.50;3.20;;;;;;;;;;5091267;28;20036;-62
2022/01/15 03:28:07;;;;;;;8.35;2.90;;;;;;;;;;5090068;28;20179;-63
2022/01/15 03:30:33;;;;;;;6.70;2.78;;;;;;;;;;5073549;28;20054;-62
2022/01/15 03:32:59;;;;;;;9.70;3.85;;;;;;;;;;5074920;28;20052;-62
2022/01/15 03:35:26;;;;;;;9.50;3.58;;;;;;;;;;5089041;28;20039;-62
2022/01/15 03:37:52;;;;;;;9.02;3.60;;;;;;;;;;5096539;28;20039;-62
2022/01/15 03:40:18;;;;;;;11.93;4.55;;;;;;;;;;5087602;28;20035;-62
2022/01/15 03:42:45;;;;;;;13.07;4.35;;;;;;;;;;5070608;28;20439;-62
2022/01/15 03:45:12;;;;;;;17.98;5.47;;;;;;;;;;5089191;28;20131;-63
2022/01/15 03:47:39;;;;;;;12.20;4.38;;;;;;;;;;5092548;28;20036;-62
2022/01/15 03:50:05;;;;;;;11.25;5.15;;;;;;;;;;5077181;28;20040;-64
2022/01/15 03:52:32;;;;;;;13.43;5.28;;;;;;;;;;5097271;28;20071;-63
2022/01/15 03:55:06;;;;;;;15.93;4.90;;;;;;;;;;5073916;28;20089;-64
2022/01/15 03:57:32;;;;;;;16.23;5.60;;;;;;;;;;5093581;28;20036;-63
2022/01/15 04:00:00;;;;;;;13.00;5.47;;;;;;;;;;5089660;28;20031;-62
2022/01/15 04:02:26;;;;;;;19.20;5.82;;;;;;;;;;5090170;28;20074;-63
2022/01/15 04:04:52;;;;;;;17.98;6.70;;;;;;;;;;5089560;28;20036;-63
2022/01/15 04:07:24;;;;;;;18.42;6.50;;;;;;;;;;5094179;28;20051;-63
2022/01/15 04:09:50;;;;;;;18.00;6.85;;;;;;;;;;5090902;28;20743;-62
2022/01/15 04:12:17;;;;;;;15.75;6.97;;;;;;;;;;5095145;28;20098;-64
2022/01/15 04:14:43;;;;;;;19.80;7.72;;;;;;;;;;5091467;28;20052;-61
2022/01/15 04:17:09;;;;;;;19.92;7.70;;;;;;;;;;5092203;28;20146;-64
2022/01/15 04:19:40;;;;;;;15.18;6.40;;;;;;;;;;5094351;28;20103;-62
2022/01/15 04:22:06;;;;;;;17.33;7.88;;;;;;;;;;5098265;28;20533;-61
2022/01/15 04:24:32;;;;;;;20.10;8.50;;;;;;;;;;5090866;28;20055;-62
2022/01/15 04:26:58;;;;;;;19.45;9.20;;;;;;;;;;5090842;28;20052;-62
2022/01/15 04:29:25;;;;;;;17.08;7.78;;;;;;;;;;5087752;28;20171;-62
2022/01/15 04:31:51;;;;;;;20.00;8.45;;;;;;;;;;5089472;28;20663;-62
2022/01/15 04:34:27;;;;;;;22.90;4.97;;;;;;;;;;5094062;28;20119;-62
2022/01/15 04:37:11;;;;;;;20.38;4.60;;;;;;;;;;5089577;28;20538;-62
2022/01/15 04:39:37;;;;;;;18.73;9.18;;;;;;;;;;5074164;28;20040;-62
2022/01/15 04:42:03;;;;;;;22.50;9.18;;;;;;;;;;5095322;28;20171;-63
2022/01/15 04:44:29;;;;;;;12.73;5.90;;;;;;;;;;5094335;28;20051;-63
2022/01/15 04:46:55;;;;;;;16.42;6.30;;;;;;;;;;5092346;28;20572;-63
2022/01/15 04:49:22;;;;;;;15.55;7.18;;;;;;;;;;5090801;28;20039;-63
2022/01/15 04:51:48;;;;;;;14.10;5.38;;;;;;;;;;5092503;28;20054;-63
2022/01/15 04:54:14;;;;;;;9.60;4.25;;;;;;;;;;5093877;28;20047;-65
2022/01/15 04:56:40;;;;;;;12.52;4.75;;;;;;;;;;5074632;28;20433;-63
2022/01/15 04:59:06;;;;;;;12.80;5.07;;;;;;;;;;5095924;28;20032;-61
2022/01/15 05:01:32;;;;;;;16.67;5.30;;;;;;;;;;5095248;28;20071;-62
2022/01/15 05:03:59;;;;;;;15.60;5.20;;;;;;;;;;5090041;28;20047;-61
2022/01/15 05:06:25;;;;;;;10.25;4.05;;;;;;;;;;5093918;28;20413;-61
2022/01/15 05:09:01;;;;;;;13.18;4.55;;;;;;;;;;5090839;28;20036;-61
2022/01/15 05:11:31;;;;;;;10.30;3.03;;;;;;;;;;5091622;28;20046;-61
2022/01/15 05:13:58;;;;;;;7.57;2.75;;;;;;;;;;5092064;28;20091;-61
2022/01/15 05:16:24;;;;;;;7.13;2.40;;;;;;;;;;5092087;28;20489;-61
2022/01/15 05:18:50;;;;;;;7.75;2.50;;;;;;;;;;5087275;28;20032;-62
2022/01/15 05:21:16;;;;;;;7.07;2.60;;;;;;;;;;5090595;28;20042;-62
2022/01/15 05:23:42;;;;;;;9.55;3.33;;;;;;;;;;5087280;28;20474;-62
2022/01/15 05:26:10;;;;;;;6.60;2.40;;;;;;;;;;5093273;28;20032;-62
2022/01/15 05:28:36;;;;;;;5.13;2.15;;;;;;;;;;5086443;28;20066;-62
2022/01/15 05:31:02;;;;;;;5.95;1.73;;;;;;;;;;5093163;28;20032;-62
2022/01/15 05:33:28;;;;;;;5.60;1.30;;;;;;;;;;5093642;28;20391;-63
2022/01/15 05:35:54;;;;;;;4.57;1.70;;;;;;;;;;5091445;28;20085;-63
2022/01/15 05:38:21;;;;;;;8.55;2.50;;;;;;;;;;5075024;28;20424;-63
2022/01/15 05:40:47;;;;;;;6.53;2.20;;;;;;;;;;5077385;28;20040;-63
2022/01/15 05:43:13;;;;;;;5.82;2.70;;;;;;;;;;5092155;28;20040;-63
2022/01/15 05:45:39;;;;;;;9.77;2.50;;;;;;;;;;5089079;28;20024;-61
2022/01/15 05:48:05;;;;;;;6.43;2.13;;;;;;;;;;5089290;28;20032;-61
2022/01/15 05:50:31;;;;;;;6.03;2.88;;;;;;;;;;5096285;28;20043;-62
2022/01/15 05:53:00;;;;;;;7.43;2.30;;;;;;;;;;5086388;28;20071;-62
2022/01/15 05:55:26;;;;;;;7.22;3.50;;;;;;;;;;5091428;28;20038;-63
2022/01/15 05:57:52;;;;;;;8.93;3.80;;;;;;;;;;5089862;28;20110;-63
2022/01/15 06:00:19;;;;;;;8.75;3.70;;;;;;;;;;5090836;28;20089;-62
2022/01/15 06:02:45;;;;;;;6.40;3.20;;;;;;;;;;5070193;28;20110;-62
2022/01/15 06:05:11;;;;;;;6.32;3.25;;;;;;;;;;5087660;28;20046;-63
2022/01/15 06:07:37;;;;;;;6.78;3.20;;;;;;;;;;5088734;28;20051;-63
2022/01/15 06:10:03;;;;;;;9.20;4.60;;;;;;;;;;5094816;28;20045;-62
2022/01/15 06:12:32;;;;;;;7.28;3.78;;;;;;;;;;5089176;28;20051;-63
2022/01/15 06:14:58;;;;;;;9.27;4.25;;;;;;;;;;5088661;28;20097;-63
2022/01/15 06:17:25;;;;;;;10.25;4.00;;;;;;;;;;5070531;28;20409;-62
2022/01/15 06:19:51;;;;;;;7.80;4.40;;;;;;;;;;5090408;28;20444;-63
2022/01/15 06:22:18;;;;;;;9.80;4.50;;;;;;;;;;5091425;28;20417;-63
2022/01/15 06:24:44;;;;;;;11.70;5.22;;;;;;;;;;5091569;28;20625;-62
2022/01/15 06:27:11;;;;;;;11.70;4.90;;;;;;;;;;5056797;28;20036;-62
2022/01/15 06:29:38;;;;;;;13.93;7.05;;;;;;;;;;5091844;28;20110;-63
2022/01/15 06:32:04;;;;;;;16.33;8.02;;;;;;;;;;5088433;28;20044;-62
2022/01/15 06:34:30;;;;;;;12.73;5.80;;;;;;;;;;5088898;28;20451;-62
2022/01/15 06:36:57;;;;;;;15.55;8.63;;;;;;;;;;5088543;28;20400;-61
2022/01/15 06:39:23;;;;;;;19.30;8.00;;;;;;;;;;5090089;28;20036;-61
2022/01/15 06:41:49;;;;;;;14.93;6.25;;;;;;;;;;5092422;28;20054;-61
2022/01/15 06:44:15;;;;;;;18.55;8.60;;;;;;;;;;5088748;28;20118;-62
2022/01/15 06:46:41;;;;;;;15.40;8.20;;;;;;;;;;5088734;28;20390;-64
2022/01/15 06:49:10;;;;;;;17.13;8.05;;;;;;;;;;5089645;28;20567;-63
2022/01/15 06:51:36;;;;;;;14.90;5.55;;;;;;;;;;5091678;28;20044;-63
2022/01/15 06:54:02;;;;;;;14.35;6.45;;;;;;;;;;5090079;28;20524;-63
2022/01/15 06:56:29;;;;;;;12.50;6.18;;;;;;;;;;5092308;28;20035;-63
2022/01/15 06:58:55;;;;;;;20.08;7.20;;;;;;;;;;5084573;28;20396;-63
2022/01/15 07:01:21;;;;;;;13.02;6.20;;;;;;;;;;5073129;28;20040;-63
2022/01/15 07:03:47;;;;;;;13.90;5.97;;;;;;;;;;5072057;28;20032;-63
2022/01/15 07:06:13;;;;;;;16.55;7.50;;;;;;;;;;5090566;28;20061;-62
2022/01/15 07:08:39;;;;;;;15.50;7.45;;;;;;;;;;5087210;28;20126;-62
2022/01/15 07:11:05;;;;;;;13.60;6.60;;;;;;;;;;5095504;28;20300;-62
2022/01/15 07:13:33;;;;;;;15.23;7.32;;;;;;;;;;5085920;28;20080;-63
2022/01/15 07:15:59;;;;;;;20.48;7.95;;;;;;;;;;5087846;28;20494;-63
2022/01/15 07:18:25;;;;;;;22.02;8.32;;;;;;;;;;5069962;28;20046;-63
2022/01/15 07:20:51;;;;;;;18.27;7.05;;;;;;;;;;5093784;28;20485;-63
2022/01/15 07:23:18;;;;;;;18.20;8.20;;;;;;;;;;5071913;28;20036;-62
2022/01/15 07:25:44;;;;;;;20.70;7.80;;;;;;;;;;5088807;28;20040;-62
2022/01/15 07:28:11;;;;;;;20.38;8.00;;;;;;;;;;5088117;28;20069;-62
2022/01/15 07:30:37;;;;;;;14.20;6.53;;;;;;;;;;5086869;28;20768;-63
2022/01/15 07:33:03;;;;;;;17.58;7.18;;;;;;;;;;5091250;28;20048;-64
2022/01/15 07:35:29;;;;;;;17.63;7.00;;;;;;;;;;5077072;28;20032;-63
2022/01/15 07:37:56;;;;;;;16.33;6.90;;;;;;;;;;5076848;28;20115;-64
2022/01/15 07:40:22;;;;;;;18.52;6.88;;;;;;;;;;5091738;28;20082;-63
2022/01/15 07:42:48;;;;;;;15.43;6.78;;;;;;;;;;5090106;28;20464;-63
2022/01/15 07:45:16;;;;;;;16.05;8.02;;;;;;;;;;5086900;28;20062;-64
2022/01/15 07:47:42;;;;;;;16.13;7.63;;;;;;;;;;5072370;28;20036;-63
2022/01/15 07:50:23;;;;;;;19.02;7.60;;;;;;;;;;5088380;28;20068;-61
2022/01/15 07:52:50;;;;;;;18.58;8.25;;;;;;;;;;5097127;28;20055;-62
2022/01/15 07:55:16;;;;;;;18.17;7.40;;;;;;;;;;5093620;28;20538;-61
2022/01/15 07:57:44;;;;;;;18.38;7.20;;;;;;;;;;5087737;28;20508;-62
2022/01/15 08:00:11;;;;;;;16.80;7.75;;;;;;;;;;5088135;28;20531;-61
2022/01/15 08:02:37;;;;;;;17.25;7.35;;;;;;;;;;5089044;28;20047;-61
2022/01/15 08:05:03;;;;;;;15.95;7.80;;;;;;;;;;5099301;28;20047;-62
2022/01/15 08:07:29;;;;;;;21.30;7.88;;;;;;;;;;5089121;28;20091;-62
2022/01/15 08:09:55;;;;;;;18.25;7.75;;;;;;;;;;5089224;28;20047;-61
2022/01/15 08:12:22;;;;;;;18.27;8.60;;;;;;;;;;5089747;28;20117;-61
2022/01/15 08:14:49;;;;;;;19.58;8.32;;;;;;;;;;5089027;28;20091;-61
2022/01/15 08:17:15;;;;;;;19.77;8.73;;;;;;;;;;5093950;28;20044;-61
2022/01/15 08:19:41;;;;;;;19.40;8.65;;;;;;;;;;5090141;28;20043;-61
2022/01/15 08:22:07;;;;;;;24.85;10.95;;;;;;;;;;5091629;28;20036;-61
2022/01/15 08:24:34;;;;;;;23.75;10.77;;;;;;;;;;5096224;28;20567;-68
2022/01/15 08:27:00;;;;;;;25.13;10.98;;;;;;;;;;5071127;28;20071;-66
2022/01/15 08:29:26;;;;;;;27.02;11.77;;;;;;;;;;5119850;27;20036;-63
2022/01/15 08:31:52;;;;;;;32.90;14.20;;;;;;;;;;5089801;28;20036;-61
2022/01/15 08:34:18;;;;;;;30.00;13.13;;;;;;;;;;5090252;28;20062;-62
2022/01/15 08:36:45;;;;;;;33.55;14.90;;;;;;;;;;5075719;28;20088;-63
2022/01/15 08:39:11;;;;;;;42.13;15.85;;;;;;;;;;5079150;28;20058;-62
2022/01/15 08:41:37;;;;;;;29.42;14.32;;;;;;;;;;5090459;28;20193;-64
2022/01/15 08:44:03;;;;;;;41.08;15.23;;;;;;;;;;5088548;28;20500;-62
2022/01/15 08:46:30;;;;;;;34.97;14.90;;;;;;;;;;5089863;28;20068;-62
2022/01/15 08:48:56;;;;;;;35.33;13.48;;;;;;;;;;5106625;28;20035;-62
2022/01/15 08:51:22;;;;;;;32.30;13.70;;;;;;;;;;5091357;28;20161;-62
2022/01/15 08:53:48;;;;;;;36.67;14.63;;;;;;;;;;5108450;28;20079;-62
2022/01/15 08:56:14;;;;;;;32.83;13.43;;;;;;;;;;5109240;28;20044;-62
2022/01/15 08:58:40;;;;;;;35.75;14.55;;;;;;;;;;5108665;28;20047;-62
2022/01/15 09:01:13;;;;;;;35.25;15.05;;;;;;;;;;5109514;28;20078;-61
2022/01/15 09:03:40;;;;;;;36.87;15.90;;;;;;;;;;5107819;28;20082;-62
2022/01/15 09:06:06;;;;;;;39.95;16.60;;;;;;;;;;5108218;28;20484;-62
2022/01/15 09:08:32;;;;;;;32.70;14.68;;;;;;;;;;5107694;28;20101;-62
2022/01/15 09:10:58;;;;;;;41.45;15.38;;;;;;;;;;5107949;28;20054;-63
2022/01/15 09:13:25;;;;;;;27.17;13.07;;;;;;;;;;5107229;28;20051;-62
2022/01/15 09:15:51;;;;;;;30.40;12.55;;;;;;;;;;5107735;28;20327;-62
2022/01/15 09:18:17;;;;;;;24.85;11.45;;;;;;;;;;5091020;28;20035;-63
2022/01/15 09:20:44;;;;;;;23.15;10.68;;;;;;;;;;5107635;28;20072;-63
2022/01/15 09:23:12;;;;;;;27.42;12.77;;;;;;;;;;5109033;28;20120;-63
2022/01/15 09:25:38;;;;;;;23.25;10.40;;;;;;;;;;5108269;28;20404;-62
2022/01/15 09:30:52;;;;;;;20.42;9.90;;;;;;;;;;5108890;28;20094;-62
2022/01/15 09:33:18;;;;;;;21.60;9.95;;;;;;;;;;5107728;28;20052;-62
2022/01/15 09:35:44;;;;;;;18.27;8.40;;;;;;;;;;5108474;28;20140;-62
2022/01/15 09:38:10;;;;;;;14.57;7.22;;;;;;;;;;5107557;28;20047;-62
2022/01/15 09:40:40;;;;;;;12.25;5.68;;;;;;;;;;5090668;28;20031;-61
2022/01/15 09:43:06;;;;;;;13.05;6.55;;;;;;;;;;5090285;28;20050;-61
2022/01/15 09:45:35;;;;;;;6.85;4.03;;;;;;;;;;5109183;28;20508;-62
2022/01/15 09:48:02;;;;;;;8.15;4.10;;;;;;;;;;5108004;28;20401;-61
2022/01/15 09:50:29;;;;;;;7.03;3.03;;;;;;;;;;5107062;28;20059;-61
2022/01/15 09:52:55;;;;;;;5.20;2.72;;;;;;;;;;5108612;28;20084;-63
2022/01/15 09:55:22;;;;;;;4.40;2.97;;;;;;;;;;5107472;28;20039;-63
2022/01/15 09:57:49;;;;;;;4.82;2.80;;;;;;;;;;5106953;28;20036;-62
2022/01/15 10:00:17;;;;;;;3.80;2.78;;;;;;;;;;5106764;28;20042;-63
2022/01/15 10:02:44;;;;;;;5.95;3.08;;;;;;;;;;5107273;28;20047;-63
2022/01/15 10:05:11;;;;;;;6.07;3.25;;;;;;;;;;5090039;28;20397;-63
2022/01/15 10:07:37;;;;;;;4.80;2.78;;;;;;;;;;5107432;28;20104;-62
2022/01/15 10:10:14;;;;;;;4.60;3.05;;;;;;;;;;5107012;28;20051;-63
2022/01/15 10:12:42;;;;;;;4.15;2.80;;;;;;;;;;5106992;28;20375;-63
2022/01/15 10:15:10;;;;;;;7.18;3.72;;;;;;;;;;5106582;28;20059;-62
2022/01/15 10:17:37;;;;;;;6.22;4.25;;;;;;;;;;5106828;28;20052;-62
2022/01/15 10:20:05;;;;;;;6.90;4.32;;;;;;;;;;5107492;28;20047;-62
2022/01/15 10:22:32;;;;;;;6.68;4.28;;;;;;;;;;5089761;28;20051;-63
2022/01/15 10:24:58;;;;;;;6.82;4.57;;;;;;;;;;5089904;28;20502;-62
2022/01/15 10:27:25;;;;;;;7.53;4.72;;;;;;;;;;5108876;28;20500;-62
2022/01/15 10:30:03;;;;;;;8.45;4.97;;;;;;;;;;5089844;28;20393;-62
2022/01/15 10:32:30;;;;;;;8.82;5.32;;;;;;;;;;5108441;28;20134;-63
2022/01/15 10:34:56;;;;;;;6.82;4.90;;;;;;;;;;5089399;28;20055;-62
2022/01/15 10:37:24;;;;;;;9.07;5.65;;;;;;;;;;5089937;28;20374;-62
2022/01/15 10:39:55;;;;;;;8.05;4.90;;;;;;;;;;5106490;28;20039;-63
2022/01/15 10:42:23;;;;;;;9.68;6.32;;;;;;;;;;5089532;28;20051;-62
2022/01/15 10:44:49;;;;;;;7.80;5.55;;;;;;;;;;5106977;28;20050;-62
2022/01/15 10:47:16;;;;;;;8.02;5.65;;;;;;;;;;5090098;28;20168;-62
2022/01/15 10:49:43;;;;;;;8.20;5.90;;;;;;;;;;5090150;28;20087;-63
2022/01/15 10:52:13;;;;;;;7.88;5.93;;;;;;;;;;5109036;28;20171;-62
2022/01/15 10:54:51;;;;;;;10.55;6.93;;;;;;;;;;5106894;28;20089;-61
2022/01/15 10:57:18;;;;;;;9.20;6.47;;;;;;;;;;5090199;28;20067;-62
2022/01/15 10:59:57;;;;;;;9.80;6.78;;;;;;;;;;5106855;28;20116;-61
2022/01/15 11:02:23;;;;;;;9.63;6.60;;;;;;;;;;5106704;28;20091;-62
2022/01/15 11:04:49;;;;;;;12.40;7.15;;;;;;;;;;5106592;28;20142;-62
2022/01/15 11:07:17;;;;;;;10.18;7.38;;;;;;;;;;5093978;28;20090;-62
2022/01/15 11:09:44;;;;;;;9.43;6.80;;;;;;;;;;5110299;28;20047;-62
2022/01/15 11:12:10;;;;;;;10.70;6.53;;;;;;;;;;5111797;28;20040;-61
2022/01/15 11:14:37;;;;;;;10.48;6.45;;;;;;;;;;5110615;28;20180;-60
2022/01/15 11:17:03;;;;;;;8.75;6.35;;;;;;;;;;5111858;28;20036;-61
2022/01/15 11:19:33;;;;;;;10.52;6.95;;;;;;;;;;5110964;28;20046;-62
2022/01/15 11:22:00;;;;;;;10.98;7.07;;;;;;;;;;5093799;28;20047;-61
2022/01/15 11:24:26;;;;;;;10.13;6.13;;;;;;;;;;5111991;28;20063;-62
2022/01/15 11:26:55;;;;;;;11.70;6.80;;;;;;;;;;5110469;28;20063;-62
2022/01/15 11:29:30;;;;;;;10.38;6.88;;;;;;;;;;5111708;28;20129;-62
2022/01/15 11:31:58;;;;;;;11.07;7.68;;;;;;;;;;5093003;28;20039;-63
2022/01/15 11:34:25;;;;;;;13.85;8.85;;;;;;;;;;5092981;28;20047;-62
2022/01/15 11:36:51;;;;;;;14.02;9.10;;;;;;;;;;5109905;28;20043;-62
2022/01/15 11:39:32;;;;;;;14.05;9.32;;;;;;;;;;5109521;28;20093;-62
2022/01/15 11:42:00;;;;;;;14.52;9.82;;;;;;;;;;5109567;28;20147;-61
2022/01/15 11:44:29;;;;;;;16.23;10.63;;;;;;;;;;5111087;28;20484;-62
2022/01/15 11:46:56;;;;;;;17.60;11.45;;;;;;;;;;5110044;28;20108;-61
2022/01/15 11:49:32;;;;;;;17.17;10.95;;;;;;;;;;5111102;28;20825;-62
2022/01/15 11:52:05;;;;;;;15.20;10.55;;;;;;;;;;5109596;28;20511;-60
2022/01/15 11:54:31;;;;;;;17.85;12.32;;;;;;;;;;5109942;28;20104;-61
2022/01/15 11:56:57;;;;;;;14.98;9.80;;;;;;;;;;5111150;28;20377;-62
2022/01/15 11:59:26;;;;;;;13.20;9.20;;;;;;;;;;5109579;28;20684;-62
2022/01/15 12:01:56;;;;;;;10.52;7.38;;;;;;;;;;5109088;28;20514;-62
2022/01/15 12:04:26;;;;;;;11.00;7.65;;;;;;;;;;5092666;28;20075;-62
2022/01/15 12:07:02;;;;;;;11.10;7.50;;;;;;;;;;5109348;28;20199;-61
2022/01/15 12:09:34;;;;;;;11.20;8.25;;;;;;;;;;5109887;28;20071;-62
2022/01/15 12:12:00;;;;;;;14.15;8.77;;;;;;;;;;5109877;28;20075;-62
2022/01/15 12:14:45;;;;;;;14.88;9.85;;;;;;;;;;5110665;28;20501;-62
2022/01/15 12:17:24;;;;;;;16.23;11.57;;;;;;;;;;5108432;28;20094;-62
2022/01/15 12:19:50;;;;;;;22.02;14.60;;;;;;;;;;5092088;28;20180;-62
2022/01/15 12:22:35;;;;;;;22.00;14.13;;;;;;;;;;5109145;28;20082;-62
2022/01/15 12:25:03;;;;;;;26.52;17.08;;;;;;;;;;5109334;28;20051;-62
2022/01/15 12:27:30;;;;;;;25.25;17.13;;;;;;;;;;5108804;28;20116;-61
2022/01/15 12:30:27;;;;;;;27.98;19.42;;;;;;;;;;5110493;28;20108;-61
2022/01/15 12:32:54;;;;;;;31.70;22.27;;;;;;;;;;5097728;28;20087;-62
2022/01/15 12:35:24;;;;;;;38.40;30.92;;;;;;;;;;5108970;28;20040;-61
2022/01/15 12:37:58;;;;;;;42.28;32.75;;;;;;;;;;5092168;28;20044;-61
2022/01/15 12:40:28;;;;;;;50.05;41.97;;;;;;;;;;5108124;28;20040;-61
2022/01/15 12:42:55;;;;;;;51.22;43.17;;;;;;;;;;5092623;28;20036;-60
2022/01/15 12:45:21;;;;;;;58.28;48.97;;;;;;;;;;5088337;28;20044;-62
2022/01/15 12:47:47;;;;;;;60.30;52.10;;;;;;;;;;5088895;28;20093;-62
2022/01/15 12:50:14;;;;;;;59.60;52.40;;;;;;;;;;5070002;28;20051;-62
2022/01/15 12:52:40;;;;;;;52.72;46.92;;;;;;;;;;5087284;28;20035;-62
2022/01/15 12:55:06;;;;;;;55.03;47.75;;;;;;;;;;5086152;28;20040;-61
2022/01/15 12:57:46;;;;;;;55.25;49.08;;;;;;;;;;5087400;28;20055;-62
2022/01/15 13:00:15;;;;;;;49.30;42.00;;;;;;;;;;5087480;28;20315;-61
2022/01/15 13:02:42;;;;;;;49.08;40.42;;;;;;;;;;5083906;28;20371;-62
2022/01/15 13:05:10;;;;;;;50.25;40.83;;;;;;;;;;5087314;28;20487;-62
2022/01/15 13:07:50;;;;;;;49.22;37.53;;;;;;;;;;5086596;28;20055;-62
2022/01/15 13:10:26;;;;;;;47.53;36.47;;;;;;;;;;5096225;28;20044;-62
2022/01/15 13:12:54;;;;;;;46.97;34.42;;;;;;;;;;5087189;28;20143;-63
2022/01/15 13:15:24;;;;;;;44.83;34.58;;;;;;;;;;5086058;28;20141;-61
2022/01/15 13:17:50;;;;;;;52.45;40.20;;;;;;;;;;5068065;28;20044;-62
2022/01/15 13:20:26;;;;;;;56.28;40.63;;;;;;;;;;5068944;28;20043;-62
2022/01/15 13:22:53;;;;;;;56.75;43.20;;;;;;;;;;5087124;28;20048;-62
2022/01/15 13:25:23;;;;;;;56.30;41.83;;;;;;;;;;5087768;28;20040;-61
2022/01/15 13:27:49;;;;;;;56.10;40.85;;;;;;;;;;5086630;28;20044;-61
2022/01/15 13:30:15;;;;;;;62.35;43.40;;;;;;;;;;5086694;28;20402;-62
2022/01/15 13:33:11;;;;;;;55.30;39.88;;;;;;;;;;5086971;28;20131;-62
2022/01/15 13:35:38;;;;;;;60.95;40.15;;;;;;;;;;5075503;28;20051;-63
2022/01/15 13:38:06;;;;;;;54.05;37.70;;;;;;;;;;5084529;28;20438;-63
2022/01/15 13:40:35;;;;;;;56.33;39.92;;;;;;;;;;5086885;28;20036;-62
2022/01/15 13:43:02;;;;;;;55.83;37.25;;;;;;;;;;5085984;28;20138;-62
2022/01/15 13:45:32;;;;;;;53.08;37.10;;;;;;;;;;5087219;28;20040;-62
2022/01/15 13:48:28;;;;;;;49.20;36.65;;;;;;;;;;5087478;28;20101;-62
2022/01/15 13:53:45;;;;;;;51.85;39.25;;;;;;;;;;5088290;28;20040;-62
2022/01/15 13:56:13;;;;;;;43.70;32.00;;;;;;;;;;5086681;28;20044;-61
2022/01/15 13:58:40;;;;;;;48.95;39.33;;;;;;;;;;5088054;28;20051;-62
2022/01/15 14:01:20;;;;;;;51.08;38.92;;;;;;;;;;5088413;28;20083;-61
2022/01/15 14:03:46;;;;;;;52.40;41.67;;;;;;;;;;5086198;28;20048;-62
2022/01/15 14:06:12;;;;;;;48.50;37.50;;;;;;;;;;5086522;28;20119;-62
2022/01/15 14:08:38;;;;;;;47.97;39.25;;;;;;;;;;5088408;28;20477;-61
2022/01/15 14:11:14;;;;;;;47.03;36.88;;;;;;;;;;5086867;28;20434;-62
2022/01/15 14:13:41;;;;;;;44.75;35.85;;;;;;;;;;5086524;28;20052;-61
2022/01/15 14:16:21;;;;;;;46.42;36.95;;;;;;;;;;5085728;28;20040;-62
2022/01/15 14:18:54;;;;;;;50.88;39.42;;;;;;;;;;5086320;28;20044;-61
2022/01/15 14:21:40;;;;;;;45.25;35.10;;;;;;;;;;5087742;28;20040;-62
2022/01/15 14:24:33;;;;;;;51.72;40.35;;;;;;;;;;5085830;28;20502;-63
2022/01/15 14:26:59;;;;;;;51.72;41.47;;;;;;;;;;5081864;28;20093;-63
2022/01/15 14:29:26;;;;;;;48.38;38.45;;;;;;;;;;5086904;28;20545;-62
2022/01/15 14:31:57;;;;;;;48.80;39.65;;;;;;;;;;5086158;28;20442;-61
2022/01/15 14:34:23;;;;;;;43.35;34.40;;;;;;;;;;5087561;28;20040;-62
2022/01/15 14:36:53;;;;;;;46.75;37.80;;;;;;;;;;5087864;28;20402;-61
2022/01/15 14:39:19;;;;;;;44.45;38.50;;;;;;;;;;5087958;28;20032;-62
2022/01/15 14:41:46;;;;;;;40.28;34.75;;;;;;;;;;5073674;28;20039;-62
2022/01/15 14:44:12;;;;;;;40.42;35.92;;;;;;;;;;5072825;28;20123;-62
2022/01/15 14:46:39;;;;;;;42.45;34.80;;;;;;;;;;5091655;28;20040;-62
2022/01/15 14:49:05;;;;;;;37.95;32.60;;;;;;;;;;5091527;28;20042;-62
2022/01/15 14:51:32;;;;;;;39.50;33.40;;;;;;;;;;5090628;28;20119;-62
2022/01/15 14:53:58;;;;;;;38.85;33.75;;;;;;;;;;5073270;28;20063;-62
2022/01/15 14:56:24;;;;;;;42.95;38.15;;;;;;;;;;5089662;28;20112;-62
2022/01/15 14:58:51;;;;;;;40.15;35.78;;;;;;;;;;5073338;28;20473;-62